sensor_id;sensor_type;location;lat;lon;timestamp;pressure;altitude;pressure_sealevel;temperature;humidity
4590;BME280;2307;48.448;9.216;2022-07-01T00:00:04;95519.00;;;15.17;100.00
4590;BME280;2307;48.448;9.216;2022-07-01T00:02:30;95515.25;;;15.03;100.00
4590;BME280;2307;48.448;9.216;2022-07-01T00:04:57;95515.19;;;14.93;100.00
4590;BME280;2307;48.448;9.216;2022-07-01T00:07:23;95524.72;;;14.83;100.00
4590;BME280;2307;48.448;9.216;2022-07-01T00:09:50;95518.22;;;14.69;100.00
4590;BME280;2307;48.448;9.216;2022-07-01T00:12:16;95508.09;;;14.61;100.00
4590;BME280;2307;48.448;9.216;2022-07-01T00:14:42;95515.22;;;14.56;100.00
4590;BME280;2307;48.448;9.216;2022-07-01T00:17:10;95520.19;;;14.42;100.00
4590;BME280;2307;48.448;9.216;2022-07-01T00:19:36;95525.59;;;14.52;100.00
4590;BME280;2307;48.448;9.216;2022-07-01T00:22:03;95533.44;;;14.37;100.00
4590;BME280;2307;48.448;9.216;2022-07-01T00:24:29;95526.63;;;14.19;100.00
4590;BME280;2307;48.448;9.216;2022-07-01T00:26:56;95519.72;;;14.18;100.00
4590;BME280;2307;48.448;9.216;2022-07-01T00:29:22;95534.63;;;14.24;100.00
4590;BME280;2307;48.448;9.216;2022-07-01T00:31:48;95529.28;;;14.19;100.00
4590;BME280;2307;48.448;9.216;2022-07-01T00:34:16;95518.91;;;14.18;100.00
4590;BME280;2307;48.448;9.216;2022-07-01T00:36:42;95508.84;;;14.20;100.00
4590;BME280;2307;48.448;9.216;2022-07-01T00:39:09;95506.84;;;14.37;100.00
4590;BME280;2307;48.448;9.216;2022-07-01T00:41:35;95533.94;;;14.34;100.00
4590;BME280;2307;48.448;9.216;2022-07-01T00:44:02;95510.38;;;14.11;100.00
4590;BME280;2307;48.448;9.216;2022-07-01T00:46:29;95488.13;;;14.22;100.00
4590;BME280;2307;48.448;9.216;2022-07-01T00:48:56;95495.84;;;14.23;100.00
4590;BME280;2307;48.448;9.216;2022-07-01T00:51:25;95507.44;;;14.12;100.00
4590;BME280;2307;48.448;9.216;2022-07-01T00:53:51;95516.13;;;14.03;100.00
4590;BME280;2307;48.448;9.216;2022-07-01T00:56:18;95516.03;;;13.93;100.00
4590;BME280;2307;48.448;9.216;2022-07-01T00:58:45;95510.22;;;13.96;100.00
4590;BME280;2307;48.448;9.216;2022-07-01T01:01:11;95511.09;;;14.01;100.00
4590;BME280;2307;48.448;9.216;2022-07-01T01:03:38;95504.50;;;14.09;100.00
4590;BME280;2307;48.448;9.216;2022-07-01T01:06:04;95499.84;;;14.26;100.00
4590;BME280;2307;48.448;9.216;2022-07-01T01:08:32;95499.44;;;14.39;100.00
4590;BME280;2307;48.448;9.216;2022-07-01T01:10:59;95498.00;;;14.26;100.00
4590;BME280;2307;48.448;9.216;2022-07-01T01:13:25;95498.34;;;14.35;100.00
4590;BME280;2307;48.448;9.216;2022-07-01T01:15:52;95498.84;;;14.32;100.00
4590;BME280;2307;48.448;9.216;2022-07-01T01:18:18;95501.09;;;14.45;100.00
4590;BME280;2307;48.448;9.216;2022-07-01T01:20:46;95500.31;;;14.50;100.00
4590;BME280;2307;48.448;9.216;2022-07-01T01:23:12;95491.59;;;14.59;100.00
4590;BME280;2307;48.448;9.216;2022-07-01T01:25:38;95479.16;;;14.70;100.00
4590;BME280;2307;48.448;9.216;2022-07-01T01:28:05;95477.84;;;14.72;100.00
4590;BME280;2307;48.448;9.216;2022-07-01T01:30:31;95478.41;;;14.74;100.00
4590;BME280;2307;48.448;9.216;2022-07-01T01:32:58;95469.84;;;14.67;100.00
4590;BME280;2307;48.448;9.216;2022-07-01T01:35:24;95462.13;;;14.66;100.00
4590;BME280;2307;48.448;9.216;2022-07-01T01:37:52;95465.88;;;14.70;100.00
4590;BME280;2307;48.448;9.216;2022-07-01T01:40:18;95466.97;;;14.74;100.00
4590;BME280;2307;48.448;9.216;2022-07-01T01:42:45;95455.22;;;14.65;100.00
4590;BME280;2307;48.448;9.216;2022-07-01T01:45:11;95459.16;;;14.52;100.00
4590;BME280;2307;48.448;9.216;2022-07-01T01:47:38;95454.34;;;14.54;100.00
4590;BME280;2307;48.448;9.216;2022-07-01T01:50:05;95452.75;;;14.53;100.00
4590;BME280;2307;48.448;9.216;2022-07-01T01:52:31;95448.81;;;14.66;100.00
4590;BME280;2307;48.448;9.216;2022-07-01T01:54:59;95446.97;;;14.66;100.00
4590;BME280;2307;48.448;9.216;2022-07-01T01:57:26;95437.94;;;14.67;100.00
4590;BME280;2307;48.448;9.216;2022-07-01T01:59:52;95428.66;;;14.75;100.00
4590;BME280;2307;48.448;9.216;2022-07-01T02:02:19;95421.53;;;14.80;100.00
4590;BME280;2307;48.448;9.216;2022-07-01T02:04:45;95430.78;;;14.73;100.00
4590;BME280;2307;48.448;9.216;2022-07-01T02:07:12;95430.78;;;14.73;100.00
4590;BME280;2307;48.448;9.216;2022-07-01T02:09:38;95430.78;;;14.73;100.00
4590;BME280;2307;48.448;9.216;2022-07-01T02:12:06;95423.56;;;14.63;100.00
4590;BME280;2307;48.448;9.216;2022-07-01T02:14:32;95422.81;;;14.68;100.00
4590;BME280;2307;48.448;9.216;2022-07-01T02:16:59;95432.13;;;14.70;100.00
4590;BME280;2307;48.448;9.216;2022-07-01T02:19:25;95439.50;;;14.58;100.00
4590;BME280;2307;48.448;9.216;2022-07-01T02:21:52;95440.28;;;14.59;100.00
4590;BME280;2307;48.448;9.216;2022-07-01T02:24:18;95440.78;;;14.56;100.00
4590;BME280;2307;48.448;9.216;2022-07-01T02:26:45;95429.63;;;14.54;100.00
4590;BME280;2307;48.448;9.216;2022-07-01T02:29:12;95425.38;;;14.53;100.00
4590;BME280;2307;48.448;9.216;2022-07-01T02:31:39;95421.94;;;14.52;100.00
4590;BME280;2307;48.448;9.216;2022-07-01T02:34:06;95432.88;;;14.61;100.00
4590;BME280;2307;48.448;9.216;2022-07-01T02:36:32;95435.78;;;14.59;100.00
4590;BME280;2307;48.448;9.216;2022-07-01T02:38:58;95424.31;;;14.54;100.00
4590;BME280;2307;48.448;9.216;2022-07-01T02:41:25;95427.78;;;14.54;100.00
4590;BME280;2307;48.448;9.216;2022-07-01T02:43:51;95427.50;;;14.51;100.00
4590;BME280;2307;48.448;9.216;2022-07-01T02:46:19;95424.31;;;14.49;100.00
4590;BME280;2307;48.448;9.216;2022-07-01T02:48:45;95437.59;;;14.49;100.00
4590;BME280;2307;48.448;9.216;2022-07-01T02:51:12;95430.38;;;14.44;100.00
4590;BME280;2307;48.448;9.216;2022-07-01T02:53:39;95433.84;;;14.50;100.00
4590;BME280;2307;48.448;9.216;2022-07-01T02:56:05;95435.97;;;14.43;100.00
4590;BME280;2307;48.448;9.216;2022-07-01T02:58:32;95448.34;;;14.32;100.00
4590;BME280;2307;48.448;9.216;2022-07-01T03:00:58;95465.78;;;14.18;100.00
4590;BME280;2307;48.448;9.216;2022-07-01T03:03:26;95468.38;;;14.08;100.00
4590;BME280;2307;48.448;9.216;2022-07-01T03:05:52;95473.63;;;14.03;100.00
4590;BME280;2307;48.448;9.216;2022-07-01T03:08:19;95477.81;;;13.94;100.00
4590;BME280;2307;48.448;9.216;2022-07-01T03:10:45;95488.47;;;13.99;100.00
4590;BME280;2307;48.448;9.216;2022-07-01T03:13:11;95495.31;;;13.90;100.00
4590;BME280;2307;48.448;9.216;2022-07-01T03:15:38;95497.81;;;13.74;100.00
4590;BME280;2307;48.448;9.216;2022-07-01T03:18:04;95506.47;;;13.60;100.00
4590;BME280;2307;48.448;9.216;2022-07-01T03:20:32;95513.81;;;13.53;100.00
4590;BME280;2307;48.448;9.216;2022-07-01T03:22:58;95501.28;;;13.48;100.00
4590;BME280;2307;48.448;9.216;2022-07-01T03:25:24;95497.47;;;13.39;100.00
4590;BME280;2307;48.448;9.216;2022-07-01T03:27:51;95511.00;;;13.38;100.00
4590;BME280;2307;48.448;9.216;2022-07-01T03:30:18;95506.78;;;13.42;100.00
4590;BME280;2307;48.448;9.216;2022-07-01T03:32:45;95510.19;;;13.37;100.00
4590;BME280;2307;48.448;9.216;2022-07-01T03:35:11;95505.31;;;13.51;100.00
4590;BME280;2307;48.448;9.216;2022-07-01T03:37:57;95500.03;;;13.56;100.00
4590;BME280;2307;48.448;9.216;2022-07-01T03:40:23;95510.56;;;13.72;100.00
4590;BME280;2307;48.448;9.216;2022-07-01T03:42:50;95513.16;;;13.67;100.00
4590;BME280;2307;48.448;9.216;2022-07-01T03:45:16;95510.97;;;13.59;100.00
4590;BME280;2307;48.448;9.216;2022-07-01T03:47:45;95525.84;;;13.60;100.00
4590;BME280;2307;48.448;9.216;2022-07-01T03:50:12;95534.88;;;13.64;100.00
4590;BME280;2307;48.448;9.216;2022-07-01T03:52:39;95534.88;;;13.64;100.00
4590;BME280;2307;48.448;9.216;2022-07-01T03:55:07;95538.34;;;13.65;100.00
4590;BME280;2307;48.448;9.216;2022-07-01T03:57:33;95542.84;;;13.64;100.00
4590;BME280;2307;48.448;9.216;2022-07-01T03:59:59;95556.31;;;13.58;100.00
4590;BME280;2307;48.448;9.216;2022-07-01T04:02:25;95554.81;;;13.40;100.00
4590;BME280;2307;48.448;9.216;2022-07-01T04:04:52;95573.28;;;13.35;100.00
4590;BME280;2307;48.448;9.216;2022-07-01T04:07:20;95582.25;;;13.29;100.00
4590;BME280;2307;48.448;9.216;2022-07-01T04:09:46;95589.78;;;13.15;100.00
4590;BME280;2307;48.448;9.216;2022-07-01T04:12:15;95597.47;;;13.17;100.00
4590;BME280;2307;48.448;9.216;2022-07-01T04:14:41;95589.66;;;13.27;100.00
4590;BME280;2307;48.448;9.216;2022-07-01T04:17:07;95594.59;;;13.40;100.00
4590;BME280;2307;48.448;9.216;2022-07-01T04:19:34;95597.56;;;13.44;100.00
4590;BME280;2307;48.448;9.216;2022-07-01T04:22:01;95600.06;;;13.55;100.00
4590;BME280;2307;48.448;9.216;2022-07-01T04:24:44;95608.00;;;13.50;100.00
4590;BME280;2307;48.448;9.216;2022-07-01T04:27:11;95610.25;;;13.42;100.00
4590;BME280;2307;48.448;9.216;2022-07-01T04:29:38;95601.94;;;13.33;100.00
4590;BME280;2307;48.448;9.216;2022-07-01T04:32:05;95595.13;;;13.42;100.00
4590;BME280;2307;48.448;9.216;2022-07-01T04:34:32;95584.97;;;13.34;100.00
4590;BME280;2307;48.448;9.216;2022-07-01T04:36:58;95590.94;;;13.46;100.00
4590;BME280;2307;48.448;9.216;2022-07-01T04:39:25;95592.75;;;13.41;100.00
4590;BME280;2307;48.448;9.216;2022-07-01T04:41:51;95594.06;;;13.38;100.00
4590;BME280;2307;48.448;9.216;2022-07-01T04:44:26;95590.63;;;13.43;100.00
4590;BME280;2307;48.448;9.216;2022-07-01T04:46:54;95598.06;;;13.41;100.00
4590;BME280;2307;48.448;9.216;2022-07-01T04:49:20;95597.41;;;13.55;100.00
4590;BME280;2307;48.448;9.216;2022-07-01T04:51:47;95605.06;;;13.52;100.00
4590;BME280;2307;48.448;9.216;2022-07-01T04:54:13;95604.72;;;13.43;100.00
4590;BME280;2307;48.448;9.216;2022-07-01T04:56:39;95604.94;;;13.42;100.00
4590;BME280;2307;48.448;9.216;2022-07-01T04:59:06;95611.41;;;13.29;100.00
4590;BME280;2307;48.448;9.216;2022-07-01T05:01:32;95602.88;;;13.22;100.00
4590;BME280;2307;48.448;9.216;2022-07-01T05:04:00;95601.13;;;13.32;100.00
4590;BME280;2307;48.448;9.216;2022-07-01T05:06:27;95598.28;;;13.39;100.00
4590;BME280;2307;48.448;9.216;2022-07-01T05:08:53;95605.44;;;13.39;100.00
4590;BME280;2307;48.448;9.216;2022-07-01T05:11:20;95605.44;;;13.39;100.00
4590;BME280;2307;48.448;9.216;2022-07-01T05:13:46;95608.34;;;13.37;100.00
4590;BME280;2307;48.448;9.216;2022-07-01T05:16:13;95617.84;;;13.33;100.00
4590;BME280;2307;48.448;9.216;2022-07-01T05:18:39;95617.97;;;13.21;100.00
4590;BME280;2307;48.448;9.216;2022-07-01T05:21:24;95629.31;;;13.17;100.00
4590;BME280;2307;48.448;9.216;2022-07-01T05:24:08;95627.47;;;13.17;100.00
4590;BME280;2307;48.448;9.216;2022-07-01T05:26:35;95624.63;;;13.24;100.00
4590;BME280;2307;48.448;9.216;2022-07-01T05:29:01;95625.25;;;13.31;100.00
4590;BME280;2307;48.448;9.216;2022-07-01T05:31:27;95621.84;;;13.14;100.00
4590;BME280;2307;48.448;9.216;2022-07-01T05:33:54;95621.78;;;13.09;100.00
4590;BME280;2307;48.448;9.216;2022-07-01T05:36:20;95608.56;;;13.14;100.00
4590;BME280;2307;48.448;9.216;2022-07-01T05:38:48;95599.63;;;13.20;100.00
4590;BME280;2307;48.448;9.216;2022-07-01T05:41:14;95592.00;;;13.23;100.00
4590;BME280;2307;48.448;9.216;2022-07-01T05:43:42;95599.09;;;13.18;100.00
4590;BME280;2307;48.448;9.216;2022-07-01T05:46:08;95608.22;;;13.27;100.00
4590;BME280;2307;48.448;9.216;2022-07-01T05:48:35;95613.53;;;13.27;100.00
4590;BME280;2307;48.448;9.216;2022-07-01T05:51:02;95634.25;;;13.30;100.00
4590;BME280;2307;48.448;9.216;2022-07-01T05:53:28;95635.88;;;13.31;100.00
4590;BME280;2307;48.448;9.216;2022-07-01T05:55:56;95630.91;;;13.18;100.00
4590;BME280;2307;48.448;9.216;2022-07-01T05:58:22;95636.72;;;13.15;100.00
4590;BME280;2307;48.448;9.216;2022-07-01T06:00:48;95637.75;;;13.14;100.00
4590;BME280;2307;48.448;9.216;2022-07-01T06:03:15;95643.91;;;13.19;100.00
4590;BME280;2307;48.448;9.216;2022-07-01T06:05:41;95639.06;;;13.33;100.00
4590;BME280;2307;48.448;9.216;2022-07-01T06:08:08;95637.44;;;13.32;100.00
4590;BME280;2307;48.448;9.216;2022-07-01T06:10:35;95634.69;;;13.22;100.00
4590;BME280;2307;48.448;9.216;2022-07-01T06:13:03;95640.09;;;13.32;100.00
4590;BME280;2307;48.448;9.216;2022-07-01T06:15:29;95640.69;;;13.34;100.00
4590;BME280;2307;48.448;9.216;2022-07-01T06:17:56;95648.84;;;13.49;100.00
4590;BME280;2307;48.448;9.216;2022-07-01T06:20:22;95646.53;;;13.58;100.00
4590;BME280;2307;48.448;9.216;2022-07-01T06:22:49;95654.41;;;13.69;100.00
4590;BME280;2307;48.448;9.216;2022-07-01T06:25:15;95648.91;;;13.76;100.00
4590;BME280;2307;48.448;9.216;2022-07-01T06:27:42;95654.72;;;13.73;100.00
4590;BME280;2307;48.448;9.216;2022-07-01T06:30:11;95636.47;;;13.81;100.00
4590;BME280;2307;48.448;9.216;2022-07-01T06:32:37;95642.22;;;13.95;100.00
4590;BME280;2307;48.448;9.216;2022-07-01T06:35:05;95651.41;;;13.88;100.00
4590;BME280;2307;48.448;9.216;2022-07-01T06:37:32;95649.19;;;13.79;100.00
4590;BME280;2307;48.448;9.216;2022-07-01T06:40:00;95646.44;;;13.69;100.00
4590;BME280;2307;48.448;9.216;2022-07-01T06:42:27;95640.75;;;13.61;100.00
4590;BME280;2307;48.448;9.216;2022-07-01T06:44:53;95650.78;;;13.80;100.00
4590;BME280;2307;48.448;9.216;2022-07-01T06:47:21;95659.72;;;13.96;100.00
4590;BME280;2307;48.448;9.216;2022-07-01T06:49:47;95667.38;;;13.93;100.00
4590;BME280;2307;48.448;9.216;2022-07-01T06:52:14;95672.97;;;13.91;100.00
4590;BME280;2307;48.448;9.216;2022-07-01T06:54:40;95676.03;;;13.83;100.00
4590;BME280;2307;48.448;9.216;2022-07-01T06:57:07;95676.03;;;13.83;100.00
4590;BME280;2307;48.448;9.216;2022-07-01T06:59:33;95689.44;;;13.71;100.00
4590;BME280;2307;48.448;9.216;2022-07-01T07:01:59;95699.38;;;13.59;100.00
4590;BME280;2307;48.448;9.216;2022-07-01T07:04:27;95701.47;;;13.57;100.00
4590;BME280;2307;48.448;9.216;2022-07-01T07:06:54;95702.53;;;13.56;100.00
4590;BME280;2307;48.448;9.216;2022-07-01T07:09:20;95699.25;;;13.49;100.00
4590;BME280;2307;48.448;9.216;2022-07-01T07:11:46;95699.97;;;13.45;100.00
4590;BME280;2307;48.448;9.216;2022-07-01T07:14:13;95702.09;;;13.64;100.00
4590;BME280;2307;48.448;9.216;2022-07-01T07:16:40;95704.75;;;13.64;100.00
4590;BME280;2307;48.448;9.216;2022-07-01T07:19:06;95700.88;;;13.50;100.00
4590;BME280;2307;48.448;9.216;2022-07-01T07:21:36;95703.84;;;13.54;100.00
4590;BME280;2307;48.448;9.216;2022-07-01T07:24:03;95708.38;;;13.58;100.00
4590;BME280;2307;48.448;9.216;2022-07-01T07:26:29;95707.00;;;13.72;100.00
4590;BME280;2307;48.448;9.216;2022-07-01T07:28:56;95701.88;;;13.66;100.00
4590;BME280;2307;48.448;9.216;2022-07-01T07:31:22;95691.44;;;13.59;100.00
4590;BME280;2307;48.448;9.216;2022-07-01T07:33:48;95703.25;;;13.73;100.00
4590;BME280;2307;48.448;9.216;2022-07-01T07:36:15;95698.94;;;13.67;100.00
4590;BME280;2307;48.448;9.216;2022-07-01T07:38:42;95708.88;;;13.55;100.00
4590;BME280;2307;48.448;9.216;2022-07-01T07:41:09;95701.78;;;13.61;100.00
4590;BME280;2307;48.448;9.216;2022-07-01T07:43:35;95698.44;;;13.70;100.00
4590;BME280;2307;48.448;9.216;2022-07-01T07:46:02;95701.81;;;13.82;100.00
4590;BME280;2307;48.448;9.216;2022-07-01T07:48:28;95706.13;;;13.89;100.00
4590;BME280;2307;48.448;9.216;2022-07-01T07:50:55;95698.59;;;13.80;100.00
4590;BME280;2307;48.448;9.216;2022-07-01T07:53:21;95683.03;;;13.67;100.00
4590;BME280;2307;48.448;9.216;2022-07-01T07:55:49;95701.69;;;13.72;100.00
4590;BME280;2307;48.448;9.216;2022-07-01T07:58:15;95708.03;;;13.71;100.00
4590;BME280;2307;48.448;9.216;2022-07-01T08:00:42;95713.78;;;13.63;100.00
4590;BME280;2307;48.448;9.216;2022-07-01T08:03:09;95700.31;;;13.70;100.00
4590;BME280;2307;48.448;9.216;2022-07-01T08:05:35;95707.50;;;13.69;100.00
4590;BME280;2307;48.448;9.216;2022-07-01T08:08:01;95710.13;;;13.69;100.00
4590;BME280;2307;48.448;9.216;2022-07-01T08:10:28;95712.84;;;13.53;100.00
4590;BME280;2307;48.448;9.216;2022-07-01T08:12:56;95720.81;;;13.74;100.00
4590;BME280;2307;48.448;9.216;2022-07-01T08:15:25;95720.25;;;13.72;100.00
4590;BME280;2307;48.448;9.216;2022-07-01T08:17:51;95729.81;;;13.73;100.00
4590;BME280;2307;48.448;9.216;2022-07-01T08:20:17;95734.63;;;13.76;100.00
4590;BME280;2307;48.448;9.216;2022-07-01T08:22:44;95737.53;;;13.75;100.00
4590;BME280;2307;48.448;9.216;2022-07-01T08:25:10;95733.53;;;13.72;100.00
4590;BME280;2307;48.448;9.216;2022-07-01T08:27:37;95732.09;;;13.65;100.00
4590;BME280;2307;48.448;9.216;2022-07-01T08:30:07;95734.03;;;13.69;100.00
4590;BME280;2307;48.448;9.216;2022-07-01T08:32:33;95742.22;;;13.68;100.00
4590;BME280;2307;48.448;9.216;2022-07-01T08:35:00;95751.69;;;13.80;100.00
4590;BME280;2307;48.448;9.216;2022-07-01T08:37:26;95752.19;;;13.77;100.00
4590;BME280;2307;48.448;9.216;2022-07-01T08:39:53;95762.47;;;13.74;100.00
4590;BME280;2307;48.448;9.216;2022-07-01T08:42:19;95762.78;;;13.77;100.00
4590;BME280;2307;48.448;9.216;2022-07-01T08:44:46;95762.09;;;13.65;100.00
4590;BME280;2307;48.448;9.216;2022-07-01T08:47:13;95765.88;;;13.69;100.00
4590;BME280;2307;48.448;9.216;2022-07-01T08:49:40;95758.78;;;13.75;100.00
4590;BME280;2307;48.448;9.216;2022-07-01T08:52:07;95758.13;;;13.84;100.00
4590;BME280;2307;48.448;9.216;2022-07-01T08:54:34;95757.63;;;13.88;100.00
4590;BME280;2307;48.448;9.216;2022-07-01T08:57:02;95749.66;;;13.88;100.00
4590;BME280;2307;48.448;9.216;2022-07-01T08:59:29;95756.00;;;13.87;100.00
4590;BME280;2307;48.448;9.216;2022-07-01T09:01:56;95757.00;;;13.80;100.00
4590;BME280;2307;48.448;9.216;2022-07-01T09:04:24;95752.72;;;13.79;100.00
4590;BME280;2307;48.448;9.216;2022-07-01T09:06:51;95762.31;;;13.80;100.00
4590;BME280;2307;48.448;9.216;2022-07-01T09:09:18;95763.44;;;13.84;100.00
4590;BME280;2307;48.448;9.216;2022-07-01T09:11:45;95765.94;;;13.74;100.00
4590;BME280;2307;48.448;9.216;2022-07-01T09:14:18;95765.44;;;13.77;100.00
4590;BME280;2307;48.448;9.216;2022-07-01T09:16:46;95767.69;;;13.86;100.00
4590;BME280;2307;48.448;9.216;2022-07-01T09:19:14;95783.69;;;13.91;100.00
4590;BME280;2307;48.448;9.216;2022-07-01T09:21:42;95785.13;;;13.98;100.00
4590;BME280;2307;48.448;9.216;2022-07-01T09:24:26;95788.19;;;13.90;100.00
4590;BME280;2307;48.448;9.216;2022-07-01T09:26:53;95801.00;;;13.76;100.00
4590;BME280;2307;48.448;9.216;2022-07-01T09:29:20;95787.94;;;13.53;100.00
4590;BME280;2307;48.448;9.216;2022-07-01T09:31:51;95769.91;;;13.55;100.00
4590;BME280;2307;48.448;9.216;2022-07-01T09:34:17;95758.16;;;13.51;100.00
4590;BME280;2307;48.448;9.216;2022-07-01T09:36:52;95750.97;;;13.47;100.00
4590;BME280;2307;48.448;9.216;2022-07-01T09:39:19;95739.53;;;13.46;100.00
4590;BME280;2307;48.448;9.216;2022-07-01T09:41:45;95749.59;;;13.44;100.00
4590;BME280;2307;48.448;9.216;2022-07-01T09:44:12;95767.06;;;13.40;100.00
4590;BME280;2307;48.448;9.216;2022-07-01T09:46:39;95774.59;;;13.48;100.00
4590;BME280;2307;48.448;9.216;2022-07-01T09:49:16;95789.03;;;13.57;100.00
4590;BME280;2307;48.448;9.216;2022-07-01T09:51:43;95783.03;;;13.45;100.00
4590;BME280;2307;48.448;9.216;2022-07-01T09:54:11;95785.19;;;13.48;100.00
4590;BME280;2307;48.448;9.216;2022-07-01T09:56:38;95783.13;;;13.50;100.00
4590;BME280;2307;48.448;9.216;2022-07-01T09:59:04;95789.97;;;13.46;100.00
4590;BME280;2307;48.448;9.216;2022-07-01T10:01:31;95800.25;;;13.59;100.00
4590;BME280;2307;48.448;9.216;2022-07-01T10:03:57;95795.47;;;13.61;100.00
4590;BME280;2307;48.448;9.216;2022-07-01T10:06:28;95794.34;;;13.57;100.00
4590;BME280;2307;48.448;9.216;2022-07-01T10:09:03;95801.38;;;13.63;100.00
4590;BME280;2307;48.448;9.216;2022-07-01T10:14:15;95799.97;;;13.77;100.00
4590;BME280;2307;48.448;9.216;2022-07-01T10:16:45;95800.06;;;13.82;100.00
4590;BME280;2307;48.448;9.216;2022-07-01T10:19:29;95794.75;;;14.04;100.00
4590;BME280;2307;48.448;9.216;2022-07-01T10:21:56;95788.94;;;14.29;100.00
4590;BME280;2307;48.448;9.216;2022-07-01T10:24:26;95794.75;;;14.26;100.00
4590;BME280;2307;48.448;9.216;2022-07-01T10:26:54;95811.50;;;14.05;100.00
4590;BME280;2307;48.448;9.216;2022-07-01T10:29:29;95803.97;;;13.80;100.00
4590;BME280;2307;48.448;9.216;2022-07-01T10:31:59;95822.97;;;13.89;100.00
4590;BME280;2307;48.448;9.216;2022-07-01T10:34:25;95842.03;;;13.86;100.00
4590;BME280;2307;48.448;9.216;2022-07-01T10:37:02;95840.97;;;13.87;100.00
4590;BME280;2307;48.448;9.216;2022-07-01T10:39:29;95839.88;;;13.66;100.00
4590;BME280;2307;48.448;9.216;2022-07-01T10:42:00;95842.13;;;13.57;100.00
4590;BME280;2307;48.448;9.216;2022-07-01T10:44:29;95846.16;;;13.60;100.00
4590;BME280;2307;48.448;9.216;2022-07-01T10:47:01;95839.56;;;13.62;100.00
4590;BME280;2307;48.448;9.216;2022-07-01T10:49:50;95835.28;;;13.61;100.00
4590;BME280;2307;48.448;9.216;2022-07-01T10:52:17;95834.47;;;13.77;100.00
4590;BME280;2307;48.448;9.216;2022-07-01T10:54:47;95830.47;;;13.75;100.00
4590;BME280;2307;48.448;9.216;2022-07-01T10:57:21;95836.97;;;13.67;100.00
4590;BME280;2307;48.448;9.216;2022-07-01T10:59:50;95830.44;;;13.92;100.00
4590;BME280;2307;48.448;9.216;2022-07-01T11:02:17;95836.53;;;13.92;100.00
4590;BME280;2307;48.448;9.216;2022-07-01T11:04:44;95826.41;;;13.89;100.00
4590;BME280;2307;48.448;9.216;2022-07-01T11:07:11;95834.34;;;14.06;100.00
4590;BME280;2307;48.448;9.216;2022-07-01T11:09:37;95842.16;;;13.96;100.00
4590;BME280;2307;48.448;9.216;2022-07-01T11:12:05;95834.63;;;14.26;100.00
4590;BME280;2307;48.448;9.216;2022-07-01T11:14:33;95843.91;;;14.45;100.00
4590;BME280;2307;48.448;9.216;2022-07-01T11:17:01;95850.41;;;14.16;100.00
4590;BME280;2307;48.448;9.216;2022-07-01T11:19:27;95849.03;;;14.30;100.00
4590;BME280;2307;48.448;9.216;2022-07-01T11:21:54;95852.69;;;14.67;100.00
4590;BME280;2307;48.448;9.216;2022-07-01T11:24:21;95861.09;;;14.59;100.00
4590;BME280;2307;48.448;9.216;2022-07-01T11:26:48;95866.16;;;14.82;100.00
4590;BME280;2307;48.448;9.216;2022-07-01T11:29:15;95863.63;;;14.71;100.00
4590;BME280;2307;48.448;9.216;2022-07-01T11:31:49;95859.72;;;14.78;100.00
4590;BME280;2307;48.448;9.216;2022-07-01T11:34:17;95861.00;;;14.76;100.00
4590;BME280;2307;48.448;9.216;2022-07-01T11:36:44;95863.72;;;14.81;100.00
4590;BME280;2307;48.448;9.216;2022-07-01T11:39:29;95859.75;;;15.05;100.00
4590;BME280;2307;48.448;9.216;2022-07-01T11:41:58;95867.16;;;15.03;100.00
4590;BME280;2307;48.448;9.216;2022-07-01T11:44:29;95878.63;;;14.82;100.00
4590;BME280;2307;48.448;9.216;2022-07-01T11:46:55;95879.72;;;15.08;100.00
4590;BME280;2307;48.448;9.216;2022-07-01T11:49:23;95879.72;;;15.08;100.00
4590;BME280;2307;48.448;9.216;2022-07-01T11:51:53;95868.38;;;15.17;100.00
4590;BME280;2307;48.448;9.216;2022-07-01T11:54:20;95871.38;;;15.53;100.00
4590;BME280;2307;48.448;9.216;2022-07-01T11:56:47;95872.44;;;15.25;100.00
4590;BME280;2307;48.448;9.216;2022-07-01T11:59:14;95866.97;;;15.68;100.00
4590;BME280;2307;48.448;9.216;2022-07-01T12:01:40;95867.00;;;15.73;100.00
4590;BME280;2307;48.448;9.216;2022-07-01T12:04:08;95870.25;;;15.80;100.00
4590;BME280;2307;48.448;9.216;2022-07-01T12:06:36;95872.63;;;16.14;100.00
4590;BME280;2307;48.448;9.216;2022-07-01T12:09:05;95870.88;;;16.34;100.00
4590;BME280;2307;48.448;9.216;2022-07-01T12:11:33;95875.94;;;16.36;100.00
4590;BME280;2307;48.448;9.216;2022-07-01T12:14:00;95866.88;;;16.32;100.00
4590;BME280;2307;48.448;9.216;2022-07-01T12:16:26;95862.94;;;16.49;100.00
4590;BME280;2307;48.448;9.216;2022-07-01T12:18:54;95857.41;;;16.56;100.00
4590;BME280;2307;48.448;9.216;2022-07-01T12:21:20;95867.56;;;16.64;100.00
4590;BME280;2307;48.448;9.216;2022-07-01T12:24:08;95867.38;;;16.86;100.00
4590;BME280;2307;48.448;9.216;2022-07-01T12:26:35;95872.22;;;17.04;100.00
4590;BME280;2307;48.448;9.216;2022-07-01T12:29:11;95858.66;;;17.26;100.00
4590;BME280;2307;48.448;9.216;2022-07-01T12:31:39;95856.81;;;17.51;100.00
4590;BME280;2307;48.448;9.216;2022-07-01T12:34:06;95857.09;;;17.85;100.00
4590;BME280;2307;48.448;9.216;2022-07-01T12:36:32;95851.13;;;18.39;100.00
4590;BME280;2307;48.448;9.216;2022-07-01T12:39:00;95849.91;;;18.85;100.00
4590;BME280;2307;48.448;9.216;2022-07-01T12:41:28;95846.09;;;18.91;100.00
4590;BME280;2307;48.448;9.216;2022-07-01T12:43:54;95849.59;;;19.36;100.00
4590;BME280;2307;48.448;9.216;2022-07-01T12:46:26;95845.03;;;19.36;100.00
4590;BME280;2307;48.448;9.216;2022-07-01T12:48:52;95843.75;;;19.29;100.00
4590;BME280;2307;48.448;9.216;2022-07-01T12:51:19;95838.38;;;19.29;98.11
4590;BME280;2307;48.448;9.216;2022-07-01T12:53:45;95843.06;;;19.52;100.00
4590;BME280;2307;48.448;9.216;2022-07-01T12:56:21;95839.44;;;19.33;100.00
4590;BME280;2307;48.448;9.216;2022-07-01T12:58:49;95833.59;;;19.26;96.28
4590;BME280;2307;48.448;9.216;2022-07-01T13:01:17;95836.16;;;19.02;98.74
4590;BME280;2307;48.448;9.216;2022-07-01T13:03:44;95842.28;;;19.07;100.00
4590;BME280;2307;48.448;9.216;2022-07-01T13:06:10;95843.59;;;19.15;98.46
4590;BME280;2307;48.448;9.216;2022-07-01T13:08:36;95841.88;;;19.29;100.00
4590;BME280;2307;48.448;9.216;2022-07-01T13:11:03;95840.28;;;19.67;100.00
4590;BME280;2307;48.448;9.216;2022-07-01T13:13:31;95851.09;;;20.14;100.00